Time;durP1;ratioP1;P1;durP2;ratioP2;P2;SDS_P1;SDS_P2;PMS_P1;PMS_P2;Temp;Humidity;BMP_temperature;BMP_pressure;BME280_temperature;BME280_humidity;BME280_pressure;Samples;Min_cycle;Max_cycle;Signal;HPM_P1;HPM_P2
2021/04/26 00:00:24;;;;;;;42.55;17.75;;;;;;;-0.66;69.24;100221.61;233127;1173;115471;-61
2021/04/26 00:05:47;;;;;;;31.55;15.68;;;;;;;-0.58;69.27;100218.22;234335;1173;114808;-61
2021/04/26 00:10:51;;;;;;;34.90;16.00;;;;;;;-0.53;69.20;100222.03;235419;1173;115445;-62
2021/04/26 00:15:55;;;;;;;23.85;12.53;;;;;;;-0.46;68.87;100220.45;235322;1173;115179;-62
2021/04/26 00:20:59;;;;;;;21.38;11.85;;;;;;;-0.39;68.62;100231.98;235341;1173;116172;-61
2021/04/26 00:26:03;;;;;;;19.27;9.50;;;;;;;-0.33;68.47;100233.17;235391;1173;114720;-62
2021/04/26 00:31:06;;;;;;;18.35;8.25;;;;;;;-0.29;68.06;100241.52;235334;1173;115443;-61
2021/04/26 00:36:09;;;;;;;19.33;8.03;;;;;;;-0.26;67.96;100239.42;235347;1173;115197;-62
2021/04/26 00:41:12;;;;;;;16.10;6.90;;;;;;;-0.23;67.78;100240.92;232881;1173;116319;-62
2021/04/26 00:46:15;;;;;;;16.93;7.97;;;;;;;-0.18;67.41;100246.52;233881;1173;115458;-61
2021/04/26 00:51:19;;;;;;;19.55;7.90;;;;;;;-0.18;67.73;100243.91;233207;1170;115466;-61
2021/04/26 00:56:24;;;;;;;25.68;10.43;;;;;;;-0.27;67.44;100247.43;232459;1168;114791;-62
2021/04/26 01:01:28;;;;;;;13.40;6.63;;;;;;;-0.36;67.52;100241.33;232708;1173;115961;-61
2021/04/26 01:06:32;;;;;;;22.83;9.57;;;;;;;-0.45;67.48;100237.81;233933;1167;115690;-61
2021/04/26 01:12:04;;;;;;;14.53;7.13;;;;;;;-0.50;67.65;100228.77;233517;1173;115568;-62
2021/04/26 01:17:23;;;;;;;17.77;7.30;;;;;;;-0.55;67.54;100231.83;232754;1172;115253;-62
2021/04/26 01:22:50;;;;;;;15.78;6.90;;;;;;;-0.59;68.01;100234.90;233364;1173;115752;-61
2021/04/26 01:28:12;;;;;;;18.85;7.15;;;;;;;-0.59;68.16;100227.87;233072;1167;115743;-61
2021/04/26 01:33:26;;;;;;;17.70;6.60;;;;;;;-0.60;68.24;100228.02;233335;1173;115613;-61
2021/04/26 01:38:39;;;;;;;15.17;6.40;;;;;;;-0.64;67.78;100234.55;233071;1173;116277;-61
2021/04/26 01:43:43;;;;;;;14.77;7.77;;;;;;;-0.68;67.87;100234.03;234271;1173;116064;-62
2021/04/26 01:48:50;;;;;;;14.53;6.63;;;;;;;-0.80;68.40;100225.56;233014;1173;115935;-61
2021/04/26 01:53:55;;;;;;;21.88;7.93;;;;;;;-0.89;68.13;100223.02;234938;1174;117185;-60
2021/04/26 01:59:00;;;;;;;14.78;7.45;;;;;;;-0.90;68.18;100226.60;234934;1173;115566;-61
2021/04/26 02:04:06;;;;;;;13.33;8.00;;;;;;;-0.90;68.50;100224.80;235440;1173;116264;-61
2021/04/26 02:09:10;;;;;;;12.85;6.50;;;;;;;-0.93;68.31;100224.31;235247;1173;115251;-61
2021/04/26 02:14:14;;;;;;;15.10;7.33;;;;;;;-0.92;68.55;100225.95;235116;1173;114824;-61
2021/04/26 02:19:18;;;;;;;18.70;7.17;;;;;;;-0.97;68.56;100218.55;235320;1168;114783;-61
2021/04/26 02:24:22;;;;;;;10.78;7.08;;;;;;;-1.00;68.47;100218.84;235421;1173;115581;-61
2021/04/26 02:29:30;;;;;;;19.30;7.95;;;;;;;-0.98;69.10;100216.91;234145;1173;115462;-61
2021/04/26 02:34:42;;;;;;;16.25;8.38;;;;;;;-0.96;68.63;100221.98;233989;1172;114686;-61
2021/04/26 02:39:47;;;;;;;19.58;9.20;;;;;;;-0.95;68.98;100215.78;232720;1173;115494;-60
2021/04/26 02:44:51;;;;;;;19.78;9.75;;;;;;;-0.89;69.22;100215.16;233726;1173;115117;-62
2021/04/26 02:50:03;;;;;;;19.77;9.03;;;;;;;-0.85;69.01;100219.13;233568;1174;115031;-61
2021/04/26 02:55:09;;;;;;;12.63;6.60;;;;;;;-0.86;68.83;100212.25;233306;1173;115568;-61
2021/04/26 03:00:16;;;;;;;10.87;6.90;;;;;;;-0.85;68.81;100217.34;234327;1173;115026;-61
2021/04/26 03:05:20;;;;;;;12.38;6.80;;;;;;;-0.86;69.02;100220.09;233349;1174;114827;-61
2021/04/26 03:10:24;;;;;;;13.40;8.03;;;;;;;-0.87;68.20;100221.07;233392;1168;114932;-61
2021/04/26 03:15:29;;;;;;;8.20;4.85;;;;;;;-0.91;68.29;100217.10;234084;1173;114765;-61
2021/04/26 03:20:33;;;;;;;13.37;6.97;;;;;;;-0.95;68.40;100219.22;232940;1174;115169;-61
2021/04/26 03:25:37;;;;;;;14.00;6.05;;;;;;;-1.02;67.88;100216.37;232783;1173;114654;-60
2021/04/26 03:30:41;;;;;;;11.88;5.85;;;;;;;-1.06;68.33;100225.48;234157;1173;114861;-60
2021/04/26 03:35:44;;;;;;;6.28;4.60;;;;;;;-1.06;68.14;100225.48;234460;1173;114820;-61
2021/04/26 03:40:49;;;;;;;11.55;6.85;;;;;;;-1.05;68.53;100221.89;233345;1173;115141;-60
2021/04/26 03:45:56;;;;;;;9.95;6.63;;;;;;;-1.03;68.09;100232.22;233246;1172;114782;-60
2021/04/26 03:51:01;;;;;;;14.35;5.13;;;;;;;-0.76;67.95;100233.95;234135;1173;114394;-60
2021/04/26 03:56:05;;;;;;;12.58;5.53;;;;;;;-0.66;67.82;100226.84;235345;1173;115546;-61
2021/04/26 04:01:08;;;;;;;13.57;5.43;;;;;;;-0.17;67.39;100225.41;234979;1174;115085;-60
2021/04/26 04:06:11;;;;;;;9.05;4.55;;;;;;;0.24;67.31;100229.11;235321;1173;114639;-61
2021/04/26 04:11:14;;;;;;;12.75;4.40;;;;;;;0.26;66.70;100226.33;235315;1173;114102;-61
2021/04/26 04:16:18;;;;;;;11.30;5.17;;;;;;;0.29;66.11;100224.22;235460;1173;115322;-60
2021/04/26 04:21:23;;;;;;;9.83;5.00;;;;;;;0.28;65.88;100232.24;235470;1173;114916;-60
2021/04/26 04:26:29;;;;;;;10.47;4.63;;;;;;;0.32;65.92;100230.92;234782;1173;114505;-60
2021/04/26 04:31:33;;;;;;;;;;;;;;;0.35;65.56;100225.38;234930;1173;115846;-62
2021/04/26 04:36:36;;;;;;;9.37;4.23;;;;;;;0.50;64.97;100231.68;235775;1167;102526;-60
2021/04/26 04:41:39;;;;;;;4.48;2.95;;;;;;;0.67;64.99;100245.67;232958;1173;116571;-60
2021/04/26 04:46:43;;;;;;;10.65;5.35;;;;;;;0.71;65.40;100247.00;232567;1173;115952;-61
2021/04/26 04:51:48;;;;;;;10.00;5.98;;;;;;;0.81;64.91;100255.58;234429;1173;115543;-62
2021/04/26 04:56:53;;;;;;;9.80;5.63;;;;;;;0.87;64.76;100249.69;233097;1174;115593;-60
2021/04/26 05:01:57;;;;;;;6.85;4.38;;;;;;;1.04;64.52;100253.17;233175;1167;116320;-62
2021/04/26 05:07:01;;;;;;;13.40;8.00;;;;;;;1.37;64.07;100264.55;234556;1173;115822;-64
2021/04/26 05:12:06;;;;;;;9.07;5.77;;;;;;;3.26;62.14;100259.47;233222;1174;115746;-64
2021/04/26 05:17:16;;;;;;;9.20;4.68;;;;;;;3.71;61.55;100267.35;233130;1173;115850;-63
2021/04/26 05:22:20;;;;;;;11.07;5.23;;;;;;;3.80;61.32;100267.30;233211;1173;115542;-63
2021/04/26 05:27:25;;;;;;;8.38;4.13;;;;;;;3.74;60.76;100276.73;233795;1174;115971;-62
2021/04/26 05:32:28;;;;;;;10.60;5.95;;;;;;;3.97;60.05;100277.55;232675;1173;116038;-63
2021/04/26 05:37:31;;;;;;;5.63;2.63;;;;;;;4.78;59.44;100275.84;232643;1174;116084;-63
2021/04/26 05:42:34;;;;;;;12.33;4.53;;;;;;;4.82;58.91;100277.13;235415;1170;116570;-64
2021/04/26 05:47:38;;;;;;;6.70;4.50;;;;;;;5.03;59.01;100276.34;235341;1173;116117;-64
2021/04/26 05:52:43;;;;;;;5.00;3.90;;;;;;;5.01;58.75;100273.06;234733;1173;116748;-66
2021/04/26 05:57:46;;;;;;;6.58;4.60;;;;;;;4.69;58.51;100274.30;235421;1174;116882;-63
2021/04/26 06:02:49;;;;;;;9.10;5.30;;;;;;;4.99;58.11;100278.53;235532;1174;115661;-65
2021/04/26 06:07:53;;;;;;;6.45;3.78;;;;;;;4.74;58.93;100279.85;235444;1173;116441;-63
2021/04/26 06:12:57;;;;;;;8.53;5.00;;;;;;;4.55;59.12;100283.06;235103;1174;115908;-62
2021/04/26 06:18:26;;;;;;;5.20;4.43;;;;;;;4.35;59.43;100290.68;235302;1173;115237;-64
2021/04/26 06:23:29;;;;;;;9.40;5.45;;;;;;;4.29;59.55;100296.67;235276;1173;115751;-64
2021/04/26 06:28:33;;;;;;;12.70;5.70;;;;;;;4.20;59.13;100292.49;235365;1173;114649;-64
2021/04/26 06:33:36;;;;;;;10.88;5.68;;;;;;;4.15;60.07;100293.03;235407;1173;115431;-63
2021/04/26 06:38:40;;;;;;;8.95;4.70;;;;;;;4.16;60.21;100292.03;235410;1173;115755;-63
2021/04/26 06:43:43;;;;;;;7.58;4.40;;;;;;;4.24;60.02;100293.78;234132;1173;115778;-63
2021/04/26 06:48:46;;;;;;;15.05;6.53;;;;;;;4.35;59.92;100283.58;232241;1174;116277;-62
2021/04/26 06:53:49;;;;;;;3.37;2.53;;;;;;;4.72;59.62;100289.78;232641;1174;115853;-62
2021/04/26 06:58:52;;;;;;;3.07;2.00;;;;;;;5.46;59.27;100279.88;232819;1173;116275;-63
2021/04/26 07:03:55;;;;;;;3.85;1.90;;;;;;;6.83;58.01;100273.16;233189;1174;115147;-63
2021/04/26 07:08:59;;;;;;;3.38;2.90;;;;;;;8.10;56.81;100275.85;233592;1173;116229;-65
2021/04/26 07:14:02;;;;;;;3.17;2.27;;;;;;;8.87;55.21;100269.77;234333;1173;116249;-64
2021/04/26 07:19:04;;;;;;;5.07;2.77;;;;;;;9.01;55.02;100275.86;234222;1174;115992;-65
2021/04/26 07:24:08;;;;;;;2.75;1.60;;;;;;;9.33;53.54;100268.75;232524;1173;119990;-67
2021/04/26 07:29:11;;;;;;;3.47;2.00;;;;;;;9.72;53.47;100262.36;232656;1173;116516;-68
2021/04/26 07:34:15;;;;;;;1.73;1.30;;;;;;;10.10;53.57;100267.55;232762;1173;116669;-65
2021/04/26 07:39:19;;;;;;;7.43;2.13;;;;;;;10.39;51.51;100258.94;233663;1168;118497;-64
2021/04/26 07:44:22;;;;;;;3.03;1.45;;;;;;;10.49;51.27;100261.06;233095;1173;121074;-66
2021/04/26 07:49:26;;;;;;;2.65;1.63;;;;;;;10.26;50.72;100256.39;232348;1173;117006;-64
2021/04/26 07:54:33;;;;;;;;;;;;;;;10.26;49.79;100261.72;233936;1173;118494;-63
2021/04/26 07:59:36;;;;;;;2.83;1.20;;;;;;;9.91;48.23;100249.91;234043;1171;103389;-65
2021/04/26 08:04:40;;;;;;;1.33;0.98;;;;;;;10.08;47.95;100256.33;234635;1173;115783;-65
2021/04/26 08:09:43;;;;;;;2.10;1.17;;;;;;;9.50;47.66;100259.21;235378;1173;115372;-65
2021/04/26 08:14:45;;;;;;;3.05;1.88;;;;;;;9.03;47.82;100244.56;235423;1173;115829;-64
2021/04/26 08:19:48;;;;;;;1.03;1.03;;;;;;;8.77;46.88;100256.13;235221;1173;115466;-65
2021/04/26 08:24:51;;;;;;;1.20;1.10;;;;;;;9.26;46.74;100259.98;235271;1173;117051;-65
2021/04/26 08:29:53;;;;;;;1.93;1.73;;;;;;;9.65;46.43;100242.95;235273;1173;115689;-66
2021/04/26 08:34:57;;;;;;;2.15;1.13;;;;;;;10.06;45.97;100247.74;235416;1174;117089;-64
2021/04/26 08:40:00;;;;;;;2.45;1.55;;;;;;;9.87;44.93;100236.21;233500;1173;115432;-64
2021/04/26 08:45:07;;;;;;;2.63;1.53;;;;;;;10.28;45.09;100227.67;233234;1173;116242;-64
2021/04/26 08:50:11;;;;;;;;;;;;;;;10.49;44.85;100231.75;234982;1173;114816;-64
2021/04/26 08:55:18;;;;;;;2.03;1.55;;;;;;;10.84;45.35;100237.29;236057;1172;103022;-65
2021/04/26 09:00:29;;;;;;;0.95;0.90;;;;;;;10.31;43.71;100245.08;232490;1172;115435;-66
2021/04/26 09:05:36;;;;;;;3.10;1.40;;;;;;;10.43;44.23;100233.44;233357;1167;194053;-66
2021/04/26 09:10:50;;;;;;;1.68;1.58;;;;;;;10.89;44.46;100228.63;233202;1173;115474;-65
2021/04/26 09:15:56;;;;;;;1.70;1.60;;;;;;;10.33;43.06;100227.02;232991;1172;115351;-65
2021/04/26 09:21:16;;;;;;;1.75;1.50;;;;;;;9.96;43.49;100228.77;232430;1173;115463;-66
2021/04/26 09:26:27;;;;;;;5.63;1.77;;;;;;;10.01;43.76;100227.09;233596;1174;115742;-65
2021/04/26 09:31:31;;;;;;;1.63;1.15;;;;;;;9.43;42.35;100224.69;232574;1174;114862;-65
2021/04/26 09:36:34;;;;;;;1.45;1.00;;;;;;;9.30;42.53;100232.74;232833;1174;116007;-65
2021/04/26 09:41:38;;;;;;;1.67;1.20;;;;;;;9.80;41.94;100217.63;232534;1173;116034;-64
2021/04/26 09:46:52;;;;;;;1.00;0.88;;;;;;;10.22;42.48;100220.55;233245;1173;115811;-63
2021/04/26 09:52:12;;;;;;;1.07;1.00;;;;;;;9.95;42.12;100219.97;234036;1174;118082;-63
2021/04/26 09:57:16;;;;;;;1.60;1.50;;;;;;;10.34;41.75;100216.14;233433;1174;116432;-63
2021/04/26 10:02:20;;;;;;;1.33;1.23;;;;;;;10.45;41.85;100212.72;233151;1173;117148;-65
2021/04/26 10:07:24;;;;;;;2.28;1.28;;;;;;;10.70;41.40;100219.84;233085;1169;117438;-65
2021/04/26 10:12:27;;;;;;;0.78;0.78;;;;;;;10.53;41.25;100208.13;235357;1173;115616;-66
2021/04/26 10:17:31;;;;;;;3.75;1.28;;;;;;;10.45;40.42;100202.05;235450;1173;114846;-65
2021/04/26 10:22:41;;;;;;;1.20;1.10;;;;;;;10.72;39.39;100202.55;235390;1172;116125;-65
2021/04/26 10:27:47;;;;;;;4.05;1.20;;;;;;;10.47;39.68;100199.16;235205;1173;115813;-64
2021/04/26 10:33:03;;;;;;;1.60;1.40;;;;;;;10.13;39.85;100187.20;235194;1174;115652;-65
2021/04/26 10:38:34;;;;;;;2.33;1.33;;;;;;;10.00;39.51;100193.49;235385;1173;116603;-64
2021/04/26 10:43:53;;;;;;;3.60;1.70;;;;;;;10.66;39.27;100182.14;235238;1173;116356;-64
2021/04/26 10:49:03;;;;;;;1.13;0.80;;;;;;;11.36;39.17;100176.22;235399;1172;117054;-63
2021/04/26 10:54:07;;;;;;;3.75;1.00;;;;;;;11.42;38.11;100176.13;234262;1174;116668;-64
2021/04/26 10:59:17;;;;;;;2.53;1.50;;;;;;;10.93;37.77;100169.27;233500;1174;116970;-63
2021/04/26 11:04:20;;;;;;;0.70;0.70;;;;;;;10.68;38.40;100163.26;232844;1173;115857;-64
2021/04/26 11:09:40;;;;;;;0.90;0.80;;;;;;;10.27;38.51;100158.62;234262;1173;116652;-63
2021/04/26 11:14:44;;;;;;;2.20;0.80;;;;;;;9.77;37.31;100164.84;233385;1173;117468;-64
2021/04/26 11:20:28;;;;;;;1.00;0.97;;;;;;;9.44;37.79;100169.63;232616;1174;116417;-66
2021/04/26 11:25:39;;;;;;;1.67;1.43;;;;;;;9.06;37.30;100189.11;233778;1177;117184;-63
2021/04/26 11:30:51;;;;;;;4.83;1.98;;;;;;;8.97;38.02;100171.77;232768;1173;116024;-64
2021/04/26 11:36:13;;;;;;;1.03;0.80;;;;;;;9.18;39.02;100164.47;232937;1173;115812;-63
2021/04/26 11:41:17;;;;;;;1.38;1.00;;;;;;;9.35;38.36;100155.77;232428;1174;115770;-64
2021/04/26 11:46:25;;;;;;;0.80;0.80;;;;;;;9.53;39.22;100160.31;235281;1168;116735;-64
2021/04/26 11:51:33;;;;;;;1.50;1.40;;;;;;;9.59;38.97;100151.47;235385;1173;116257;-64
2021/04/26 11:56:38;;;;;;;35.40;2.23;;;;;;;9.63;38.26;100150.00;233439;1173;115139;-63
2021/04/26 12:01:53;;;;;;;4.78;2.48;;;;;;;9.71;38.46;100152.39;232493;1173;116045;-63
2021/04/26 12:06:57;;;;;;;15.37;6.90;;;;;;;9.91;38.30;100151.38;233385;1174;116084;-64
2021/04/26 12:12:02;;;;;;;16.78;4.23;;;;;;;9.96;37.74;100132.89;233524;1174;115849;-63
2021/04/26 12:17:15;;;;;;;16.03;8.18;;;;;;;9.98;37.26;100133.49;233607;1173;116162;-63
2021/04/26 12:22:21;;;;;;;6.25;2.73;;;;;;;9.77;37.85;100124.09;234523;1167;115952;-64
2021/04/26 12:27:26;;;;;;;2.48;2.28;;;;;;;9.57;38.36;100131.42;235321;1173;135476;-63
2021/04/26 12:32:32;;;;;;;2.85;1.60;;;;;;;9.61;39.20;100119.31;235294;1173;115946;-63
2021/04/26 12:37:38;;;;;;;1.70;1.60;;;;;;;9.89;39.36;100105.52;235308;1173;115738;-63
2021/04/26 12:42:47;;;;;;;1.85;1.18;;;;;;;10.20;38.46;100094.74;235242;1173;115128;-65
2021/04/26 12:48:11;;;;;;;5.43;1.97;;;;;;;10.62;39.02;100086.84;234899;1173;115453;-64
2021/04/26 12:53:15;;;;;;;1.03;1.03;;;;;;;10.92;38.39;100086.81;235243;1174;114737;-65
2021/04/26 12:58:26;;;;;;;3.90;1.75;;;;;;;10.64;38.19;100095.42;235156;1170;115287;-65
2021/04/26 13:03:32;;;;;;;1.90;1.70;;;;;;;10.39;38.28;100085.70;233831;1173;114740;-63
2021/04/26 13:08:37;;;;;;;2.55;1.55;;;;;;;10.13;38.32;100075.32;232800;1173;117457;-63
2021/04/26 13:13:55;;;;;;;2.35;1.95;;;;;;;10.17;38.72;100071.18;234471;1173;114770;-64
2021/04/26 13:19:08;;;;;;;1.33;1.05;;;;;;;10.16;38.55;100074.88;233598;1172;115125;-63
2021/04/26 13:24:17;;;;;;;2.33;1.83;;;;;;;10.18;38.91;100054.16;233576;1173;115649;-65
2021/04/26 13:29:21;;;;;;;1.40;1.30;;;;;;;10.65;38.95;100057.88;232845;1173;115378;-66
2021/04/26 13:34:27;;;;;;;2.43;1.47;;;;;;;10.76;38.63;100048.27;234406;1167;115641;-64
2021/04/26 13:39:35;;;;;;;3.33;1.73;;;;;;;10.55;38.07;100046.13;233978;1173;114610;-65
2021/04/26 13:44:39;;;;;;;2.73;1.50;;;;;;;10.19;38.48;100045.16;233621;1173;115757;-64
2021/04/26 13:49:42;;;;;;;3.58;1.73;;;;;;;9.82;38.35;100047.00;232934;1173;117492;-66
2021/04/26 13:54:46;;;;;;;1.70;1.43;;;;;;;9.56;39.28;100048.11;233561;1173;116958;-66
2021/04/26 13:59:54;;;;;;;1.68;1.58;;;;;;;9.25;39.73;100051.67;232961;1173;116085;-65
2021/04/26 14:04:57;;;;;;;4.03;2.23;;;;;;;9.12;39.60;100051.80;233618;1174;116228;-65
2021/04/26 14:10:01;;;;;;;3.15;1.83;;;;;;;9.17;38.37;100048.50;233656;1173;117076;-67
2021/04/26 14:15:06;;;;;;;1.53;1.10;;;;;;;9.08;38.26;100035.47;232732;1173;116425;-66
2021/04/26 14:20:10;;;;;;;1.10;1.03;;;;;;;9.07;39.06;100028.52;234433;1173;116835;-65
2021/04/26 14:25:14;;;;;;;1.73;1.63;;;;;;;9.06;39.07;100024.23;233971;1167;116255;-67
2021/04/26 14:30:22;;;;;;;0.88;0.88;;;;;;;8.88;38.99;100029.47;234996;1166;115041;-64
2021/04/26 14:35:26;;;;;;;0.53;0.53;;;;;;;8.73;39.20;100027.14;235252;1174;115091;-67
2021/04/26 14:40:32;;;;;;;0.85;0.85;;;;;;;8.61;39.89;100022.72;235244;1173;115681;-68
2021/04/26 14:45:35;;;;;;;1.63;1.20;;;;;;;8.60;40.29;100023.75;235145;1173;117617;-62
2021/04/26 14:50:39;;;;;;;3.20;1.80;;;;;;;8.61;39.73;100020.06;235251;1173;116068;-70
2021/04/26 14:55:42;;;;;;;6.48;1.75;;;;;;;8.67;39.65;100020.03;235179;1173;116006;-66
2021/04/26 15:00:45;;;;;;;1.33;1.23;;;;;;;8.54;40.89;100011.34;235180;1173;116786;-65
2021/04/26 15:05:48;;;;;;;13.73;2.98;;;;;;;8.54;41.67;100014.00;234204;1174;116513;-64
2021/04/26 15:10:52;;;;;;;1.63;1.45;;;;;;;8.57;42.17;100006.39;235280;1173;115651;-66
2021/04/26 15:15:56;;;;;;;3.55;1.25;;;;;;;8.46;42.05;100003.63;234100;1174;116560;-64
2021/04/26 15:21:00;;;;;;;6.30;1.60;;;;;;;8.33;42.15;100007.98;232501;1173;115477;-64
2021/04/26 15:26:06;;;;;;;1.48;1.35;;;;;;;8.20;42.04;100005.39;232795;1173;116754;-65
2021/04/26 15:31:11;;;;;;;1.40;1.10;;;;;;;8.09;42.71;99996.23;233712;1173;114549;-65
2021/04/26 15:36:15;;;;;;;3.63;1.37;;;;;;;7.98;43.62;100012.82;233822;1174;114542;-65
2021/04/26 15:41:17;;;;;;;6.10;3.73;;;;;;;7.83;44.14;100004.33;232998;1173;114909;-66
2021/04/26 15:46:26;;;;;;;2.87;2.67;;;;;;;7.81;43.31;100001.06;232685;1173;115008;-66
2021/04/26 15:51:34;;;;;;;4.85;2.45;;;;;;;7.74;43.84;99992.30;235422;1174;114812;-64
2021/04/26 15:56:37;;;;;;;1.75;1.65;;;;;;;7.58;44.20;99996.25;235265;1173;115779;-67
2021/04/26 16:01:40;;;;;;;2.25;0.80;;;;;;;7.51;43.53;99994.63;235371;1173;114251;-64
2021/04/26 16:06:44;;;;;;;3.03;1.20;;;;;;;7.44;44.14;99984.03;235305;1173;115379;-65
2021/04/26 16:11:48;;;;;;;2.08;1.83;;;;;;;7.37;44.80;99988.53;233251;1173;114593;-67
2021/04/26 16:16:51;;;;;;;3.23;2.00;;;;;;;7.32;44.75;99983.06;232736;1171;114594;-67
2021/04/26 16:21:54;;;;;;;5.10;1.93;;;;;;;7.26;45.02;99983.89;232081;1173;115029;-67
2021/04/26 16:26:59;;;;;;;2.70;1.87;;;;;;;7.17;45.09;99977.16;232350;1174;114190;-68
2021/04/26 16:32:05;;;;;;;3.65;2.78;;;;;;;7.05;44.62;99971.66;232206;1167;116511;-68
2021/04/26 16:37:27;;;;;;;3.90;2.00;;;;;;;6.94;44.52;99977.61;235376;1173;114976;-67
2021/04/26 16:42:30;;;;;;;3.77;2.23;;;;;;;6.81;44.79;99972.30;235402;1173;116877;-66
2021/04/26 16:47:33;;;;;;;3.08;2.28;;;;;;;6.71;44.72;99960.30;234844;1173;114213;-67
2021/04/26 16:52:36;;;;;;;3.55;2.18;;;;;;;6.61;44.95;99961.71;235318;1172;114981;-64
2021/04/26 16:57:40;;;;;;;4.70;3.27;;;;;;;6.48;45.36;99957.20;235196;1173;115218;-64
2021/04/26 17:02:44;;;;;;;6.97;3.17;;;;;;;6.43;45.02;99957.00;235291;1173;114758;-66
2021/04/26 17:07:48;;;;;;;5.68;3.20;;;;;;;6.35;45.48;99957.21;235169;1173;114386;-66
2021/04/26 17:12:51;;;;;;;4.65;2.43;;;;;;;6.27;45.62;99949.45;235354;1173;114614;-66
2021/04/26 17:17:54;;;;;;;6.23;3.63;;;;;;;6.15;45.72;99951.86;235394;1173;114719;-65
2021/04/26 17:23:02;;;;;;;4.27;2.50;;;;;;;6.07;45.63;99954.72;235199;1167;114855;-65
2021/04/26 17:28:07;;;;;;;3.75;2.00;;;;;;;6.01;45.59;99952.87;235377;1166;114940;-65
2021/04/26 17:33:10;;;;;;;5.48;2.33;;;;;;;5.90;45.42;99953.44;235253;1173;114789;-62
2021/04/26 17:38:13;;;;;;;4.73;2.53;;;;;;;5.81;46.14;99954.62;233966;1173;114497;-67
2021/04/26 17:43:18;;;;;;;3.98;1.80;;;;;;;5.69;46.50;99959.65;234541;1166;115072;-64
2021/04/26 17:48:21;;;;;;;2.93;1.73;;;;;;;5.55;47.08;99956.12;233404;1173;114421;-64
2021/04/26 17:53:25;;;;;;;5.13;4.20;;;;;;;5.43;47.21;99956.89;233200;1172;115306;-67
2021/04/26 17:58:28;;;;;;;8.28;3.45;;;;;;;5.30;47.91;99961.08;233405;1174;114784;-67
2021/04/26 18:03:32;;;;;;;4.20;2.70;;;;;;;5.21;47.78;99961.42;233804;1172;114572;-66
2021/04/26 18:08:35;;;;;;;3.20;2.67;;;;;;;5.06;48.53;99961.55;232913;1174;114912;-66
2021/04/26 18:13:39;;;;;;;9.48;5.50;;;;;;;4.91;48.57;99966.92;234380;1171;114594;-67
2021/04/26 18:18:58;;;;;;;4.88;4.38;;;;;;;4.66;49.19;99971.81;233376;1173;115840;-66
2021/04/26 18:24:03;;;;;;;6.00;4.28;;;;;;;4.46;49.79;99976.11;233142;1172;114648;-66
2021/04/26 18:29:06;;;;;;;7.05;3.60;;;;;;;4.18;50.72;99973.41;233582;1173;115391;-66
2021/04/26 18:34:08;;;;;;;4.30;3.57;;;;;;;3.91;50.58;99982.05;234484;1173;114296;-66
2021/04/26 18:39:11;;;;;;;6.10;2.95;;;;;;;3.64;50.71;99988.82;234496;1173;114821;-66
2021/04/26 18:44:13;;;;;;;7.23;3.60;;;;;;;3.44;51.82;99992.99;234663;1173;114880;-66
2021/04/26 18:49:16;;;;;;;6.50;4.33;;;;;;;3.23;51.82;99999.00;235280;1173;114932;-67
2021/04/26 18:54:32;;;;;;;6.60;3.65;;;;;;;3.07;51.93;99999.96;235123;1173;114713;-66
2021/04/26 18:59:34;;;;;;;4.85;3.43;;;;;;;2.94;52.99;100000.59;235246;1174;115188;-66
2021/04/26 19:04:38;;;;;;;7.07;4.47;;;;;;;2.80;53.21;100001.38;235314;1173;115094;-64
2021/04/26 19:09:40;;;;;;;6.00;4.67;;;;;;;2.61;53.01;99994.80;235457;1173;115178;-63
2021/04/26 19:14:46;;;;;;;10.20;3.85;;;;;;;2.43;53.32;100001.37;235286;1174;115953;-63
2021/04/26 19:19:49;;;;;;;18.40;6.40;;;;;;;2.23;54.37;100009.70;235435;1173;117266;-63
2021/04/26 19:24:52;;;;;;;35.33;15.23;;;;;;;2.21;54.81;100013.49;234693;1173;116308;-66
2021/04/26 19:29:57;;;;;;;19.20;8.38;;;;;;;2.23;55.59;100020.22;233496;1173;116320;-66
2021/04/26 19:35:02;;;;;;;38.50;13.78;;;;;;;2.19;55.77;100020.73;234899;1173;115562;-66
2021/04/26 19:40:07;;;;;;;16.97;7.77;;;;;;;2.18;55.33;100022.55;232742;1174;116995;-66
2021/04/26 19:45:11;;;;;;;8.60;6.00;;;;;;;2.21;55.62;100019.57;234114;1166;116025;-67
2021/04/26 19:50:15;;;;;;;13.60;7.67;;;;;;;2.23;56.83;100022.84;233177;1173;220151;-66
2021/04/26 19:55:20;;;;;;;18.83;7.43;;;;;;;2.23;56.37;100024.66;233300;1173;115760;-66
2021/04/26 20:00:23;;;;;;;8.73;6.00;;;;;;;2.19;56.92;100020.73;233410;1173;115272;-65
2021/04/26 20:05:27;;;;;;;25.45;6.45;;;;;;;2.07;57.39;100007.18;232730;1173;117604;-66
2021/04/26 20:10:38;;;;;;;10.85;5.25;;;;;;;2.06;58.52;100016.06;233266;1173;115294;-66
2021/04/26 20:15:42;;;;;;;10.75;5.85;;;;;;;1.99;58.51;100008.03;233106;1172;115823;-65
2021/04/26 20:20:46;;;;;;;11.05;5.15;;;;;;;1.80;58.30;100016.36;233851;1174;114783;-66
2021/04/26 20:25:51;;;;;;;12.75;6.18;;;;;;;1.73;58.90;100011.95;232507;1173;115062;-65
2021/04/26 20:30:55;;;;;;;7.98;6.58;;;;;;;1.55;58.87;100012.98;234463;1168;114665;-66
2021/04/26 20:36:00;;;;;;;10.87;5.33;;;;;;;1.39;59.50;100018.30;233389;1173;115737;-66
2021/04/26 20:41:04;;;;;;;11.03;6.75;;;;;;;1.18;59.77;100018.04;232625;1173;115304;-66
2021/04/26 20:46:07;;;;;;;8.98;6.00;;;;;;;0.99;59.86;100012.14;234627;1172;115093;-65
2021/04/26 20:51:11;;;;;;;8.63;5.38;;;;;;;0.95;59.96;100010.83;233925;1174;114831;-65
2021/04/26 20:56:15;;;;;;;12.33;8.47;;;;;;;0.86;60.74;100017.09;235385;1173;114574;-65
2021/04/26 21:01:20;;;;;;;11.50;7.50;;;;;;;0.72;60.69;100016.92;235463;1174;114583;-65
2021/04/26 21:06:24;;;;;;;16.08;6.70;;;;;;;0.50;60.80;100010.53;234470;1168;114969;-65
2021/04/26 21:11:28;;;;;;;8.85;6.45;;;;;;;0.43;61.58;100015.61;235395;1173;115265;-66
2021/04/26 21:16:32;;;;;;;8.40;5.05;;;;;;;0.44;61.98;100022.49;235409;1173;114730;-65
2021/04/26 21:21:37;;;;;;;7.87;5.83;;;;;;;0.41;62.23;100022.81;235420;1172;115528;-65
2021/04/26 21:26:40;;;;;;;9.53;6.50;;;;;;;0.42;62.60;100018.39;235414;1173;115417;-65
2021/04/26 21:31:44;;;;;;;8.20;6.53;;;;;;;0.39;62.36;100024.77;234577;1172;115879;-65
2021/04/26 21:36:48;;;;;;;9.73;5.75;;;;;;;0.30;62.63;100031.02;233626;1174;116317;-65
2021/04/26 21:41:52;;;;;;;22.90;11.40;;;;;;;0.18;62.88;100027.86;233363;1173;115353;-65
2021/04/26 21:46:56;;;;;;;54.88;23.18;;;;;;;0.04;63.44;100033.71;235449;1173;115740;-65
2021/04/26 21:52:00;;;;;;;23.77;12.67;;;;;;;-0.09;63.19;100030.73;235351;1173;115005;-66
2021/04/26 21:57:03;;;;;;;28.20;14.68;;;;;;;-0.18;63.63;100021.20;235229;1173;115859;-65
2021/04/26 22:02:06;;;;;;;28.63;16.33;;;;;;;-0.27;63.80;100030.00;232930;1173;114847;-65
2021/04/26 22:07:09;;;;;;;26.48;15.90;;;;;;;-0.42;63.77;100030.61;233653;1173;115320;-64
2021/04/26 22:12:13;;;;;;;19.20;11.73;;;;;;;-0.54;64.29;100031.85;234115;1173;115720;-65
2021/04/26 22:17:18;;;;;;;10.23;6.63;;;;;;;-0.55;64.58;100030.20;233448;1173;114898;-63
2021/04/26 22:22:22;;;;;;;7.40;4.65;;;;;;;-0.65;65.09;100031.31;233780;1173;115437;-63
2021/04/26 22:27:26;;;;;;;10.53;6.93;;;;;;;-0.78;64.83;100039.58;233501;1171;115029;-62
2021/04/26 22:32:30;;;;;;;7.53;6.28;;;;;;;-0.90;65.48;100030.33;233130;1167;115710;-63
2021/04/26 22:37:35;;;;;;;11.37;6.80;;;;;;;-0.94;65.70;100027.22;233312;1173;115314;-62
2021/04/26 22:42:38;;;;;;;9.57;6.60;;;;;;;-0.99;66.10;100028.66;233874;1173;114633;-62
2021/04/26 22:47:42;;;;;;;24.23;9.20;;;;;;;-1.07;66.27;100038.08;234575;1173;115470;-62
2021/04/26 22:52:48;;;;;;;17.05;9.28;;;;;;;-1.09;66.37;100032.17;234079;1173;115521;-62
2021/04/26 22:57:53;;;;;;;13.37;6.10;;;;;;;-1.14;66.62;100033.59;235313;1173;114547;-62
2021/04/26 23:02:57;;;;;;;12.10;7.10;;;;;;;-1.19;66.41;100030.61;234742;1173;115361;-62
2021/04/26 23:08:01;;;;;;;13.93;7.43;;;;;;;-1.19;67.00;100033.23;235339;1174;115582;-63
2021/04/26 23:13:05;;;;;;;11.50;7.13;;;;;;;-1.26;66.85;100030.42;235312;1167;115474;-63